Time;durP1;ratioP1;P1;durP2;ratioP2;P2;SDS_P1;SDS_P2;PMS_P1;PMS_P2;Temp;Humidity;BMP_temperature;BMP_pressure;BME280_temperature;BME280_humidity;BME280_pressure;Samples;Min_cycle;Max_cycle;Signal;HPM_P1;HPM_P2
2023/11/27 00:00:06;;;;;;;;;;;;;;;;;;5089663;28;19958;-84
2023/11/27 00:02:32;;;;;;;;;;;;;;;;;;5089322;28;20012;-85
2023/11/27 00:04:58;;;;;;;;;;;;;;;;;;5082592;28;19908;-84
2023/11/27 00:07:24;;;;;;;;;;;;;;;;;;5079358;28;19963;-84
2023/11/27 00:09:50;;;;;;;;;;;;;;;;;;5089351;28;19912;-84
2023/11/27 00:12:16;;;;;;;;;;;;;;;;;;5088463;28;20327;-84
2023/11/27 00:14:42;;;;;;;;;;;;;;;;;;5089113;28;20030;-84
2023/11/27 00:17:07;;;;;;;;;;;;;;;;;;5089263;28;19948;-84
2023/11/27 00:19:33;;;;;;;;;;;;;;;;;;5089106;28;19943;-84
2023/11/27 00:21:59;;;;;;;;;;;;;;;;;;5082614;28;19966;-84
2023/11/27 00:24:25;;;;;;;;;;;;;;;;;;5088459;28;19939;-84
2023/11/27 00:26:51;;;;;;;;;;;;;;;;;;5088401;28;19912;-84
2023/11/27 00:29:18;;;;;;;;;;;;;;;;;;5089239;28;20102;-84
2023/11/27 00:31:44;;;;;;;;;;;;;;;;;;5088742;28;20014;-84
2023/11/27 00:34:10;;;;;;;;;;;;;;;;;;5089116;28;20031;-84
2023/11/27 00:36:36;;;;;;;;;;;;;;;;;;5088628;28;19915;-84
2023/11/27 00:39:02;;;;;;;;;;;;;;;;;;5089298;28;19915;-84
2023/11/27 00:41:28;;;;;;;;;;;;;;;;;;5088172;28;19973;-84
2023/11/27 00:43:54;;;;;;;;;;;;;;;;;;5085188;28;19908;-84
2023/11/27 00:46:20;;;;;;;;;;;;;;;;;;5090464;28;19947;-84
2023/11/27 00:48:49;;;;;;;;;;;;;;;;;;5093241;28;19967;-84
2023/11/27 00:51:15;;;;;;;;;;;;;;;;;;5089854;28;19919;-84
2023/11/27 00:53:41;;;;;;;;;;;;;;;;;;5074628;28;19912;-84
2023/11/27 00:56:07;;;;;;;;;;;;;;;;;;5090862;28;20417;-84
2023/11/27 00:58:33;;;;;;;;;;;;;;;;;;5092490;28;20319;-85
2023/11/27 01:00:59;;;;;;;;;;;;;;;;;;5090425;28;19950;-84
2023/11/27 01:03:26;;;;;;;;;;;;;;;;;;5093144;28;19919;-84
2023/11/27 01:05:52;;;;;;;;;;;;;;;;;;5089678;28;19912;-84
2023/11/27 01:08:19;;;;;;;;;;;;;;;;;;5097041;28;19962;-85
2023/11/27 01:10:45;;;;;;;;;;;;;;;;;;5101935;28;19908;-85
2023/11/27 01:13:11;;;;;;;;;;;;;;;;;;5092427;28;20455;-85
2023/11/27 01:15:37;;;;;;;;;;;;;;;;;;5092692;28;20367;-85
2023/11/27 01:18:02;;;;;;;;;;;;;;;;;;5093380;28;19962;-84
2023/11/27 01:20:29;;;;;;;;;;;;;;;;;;5091761;28;19955;-85
2023/11/27 01:22:55;;;;;;;;;;;;;;;;;;5088753;28;19981;-85
2023/11/27 01:25:21;;;;;;;;;;;;;;;;;;5092491;28;19912;-84
2023/11/27 01:27:47;;;;;;;;;;;;;;;;;;5085433;28;19954;-85
2023/11/27 01:30:13;;;;;;;;;;;;;;;;;;5092263;28;19959;-84
2023/11/27 01:32:42;;;;;;;;;;;;;;;;;;5092307;28;19983;-84
2023/11/27 01:35:08;;;;;;;;;;;;;;;;;;5087118;28;19924;-84
2023/11/27 01:37:34;;;;;;;;;;;;;;;;;;5091858;28;19931;-85
2023/11/27 01:40:00;;;;;;;;;;;;;;;;;;5090478;28;19943;-85
2023/11/27 01:42:26;;;;;;;;;;;;;;;;;;5086271;28;20216;-84
2023/11/27 01:44:51;;;;;;;;;;;;;;;;;;5092116;28;20403;-85
2023/11/27 01:47:17;;;;;;;;;;;;;;;;;;5091563;28;19947;-84
2023/11/27 01:49:44;;;;;;;;;;;;;;;;;;5090598;28;19908;-85
2023/11/27 01:52:10;;;;;;;;;;;;;;;;;;5085342;28;20018;-85
2023/11/27 01:54:38;;;;;;;;;;;;;;;;;;5072751;28;20361;-85
2023/11/27 01:57:04;;;;;;;;;;;;;;;;;;5085551;28;20343;-85
2023/11/27 01:59:30;;;;;;;;;;;;;;;;;;5095931;28;19946;-85
2023/11/27 02:01:57;;;;;;;;;;;;;;;;;;5089908;28;19908;-85
2023/11/27 02:04:23;;;;;;;;;;;;;;;;;;5091302;28;19965;-85
2023/11/27 02:06:50;;;;;;;;;;;;;;;;;;5072267;28;19951;-85
2023/11/27 02:09:16;;;;;;;;;;;;;;;;;;5088816;28;19935;-85
2023/11/27 02:11:42;;;;;;;;;;;;;;;;;;5087593;28;19951;-85
2023/11/27 02:14:08;;;;;;;;;;;;;;;;;;5090304;28;19927;-84
2023/11/27 02:16:34;;;;;;;;;;;;;;;;;;5091008;28;19961;-85
2023/11/27 02:19:00;;;;;;;;;;;;;;;;;;5090610;28;20046;-85
2023/11/27 02:21:26;;;;;;;;;;;;;;;;;;5090033;28;19916;-85
2023/11/27 02:23:52;;;;;;;;;;;;;;;;;;5090375;28;20272;-85
2023/11/27 02:26:18;;;;;;;;;;;;;;;;;;5068871;28;19970;-85
2023/11/27 02:28:44;;;;;;;;;;;;;;;;;;5085509;28;19940;-85
2023/11/27 02:31:11;;;;;;;;;;;;;;;;;;5087766;28;20342;-85
2023/11/27 02:33:36;;;;;;;;;;;;;;;;;;5090868;28;19918;-85
2023/11/27 02:36:03;;;;;;;;;;;;;;;;;;5088994;28;20039;-85
2023/11/27 02:38:29;;;;;;;;;;;;;;;;;;5090181;28;20340;-84
2023/11/27 02:40:56;;;;;;;;;;;;;;;;;;5089505;28;19996;-84
2023/11/27 02:43:21;;;;;;;;;;;;;;;;;;5087909;28;19919;-84
2023/11/27 02:45:48;;;;;;;;;;;;;;;;;;5090425;28;19952;-85
2023/11/27 02:48:13;;;;;;;;;;;;;;;;;;5089407;28;19919;-85
2023/11/27 02:50:39;;;;;;;;;;;;;;;;;;5089355;28;19971;-84
2023/11/27 02:53:05;;;;;;;;;;;;;;;;;;5090976;28;19943;-84
2023/11/27 02:55:31;;;;;;;;;;;;;;;;;;5092811;28;19916;-84
2023/11/27 02:57:57;;;;;;;;;;;;;;;;;;5097407;28;19954;-82
2023/11/27 03:00:23;;;;;;;;;;;;;;;;;;5099982;27;19912;-84
2023/11/27 03:02:49;;;;;;;;;;;;;;;;;;5099044;28;19927;-84
2023/11/27 03:05:16;;;;;;;;;;;;;;;;;;5087963;28;20355;-85
2023/11/27 03:07:43;;;;;;;;;;;;;;;;;;5089112;28;19994;-85
2023/11/27 03:10:09;;;;;;;;;;;;;;;;;;5087392;28;20387;-84
2023/11/27 03:12:35;;;;;;;;;;;;;;;;;;5083897;28;19915;-84
2023/11/27 03:15:01;;;;;;;;;;;;;;;;;;5090162;28;20059;-84
2023/11/27 03:17:26;;;;;;;;;;;;;;;;;;5089328;28;19974;-84
2023/11/27 03:19:52;;;;;;;;;;;;;;;;;;5090310;28;19951;-84
2023/11/27 03:22:19;;;;;;;;;;;;;;;;;;5089948;28;20217;-85
2023/11/27 03:24:45;;;;;;;;;;;;;;;;;;5074709;28;19954;-84
2023/11/27 03:27:11;;;;;;;;;;;;;;;;;;5089191;28;19963;-84
2023/11/27 03:29:37;;;;;;;;;;;;;;;;;;5089812;28;19907;-85
2023/11/27 03:32:03;;;;;;;;;;;;;;;;;;5083422;28;19962;-84
2023/11/27 03:34:29;;;;;;;;;;;;;;;;;;5089980;28;19930;-84
2023/11/27 03:36:55;;;;;;;;;;;;;;;;;;5089632;28;20332;-84
2023/11/27 03:39:21;;;;;;;;;;;;;;;;;;5071991;28;20319;-84
2023/11/27 03:41:47;;;;;;;;;;;;;;;;;;5069803;28;19914;-85
2023/11/27 03:44:13;;;;;;;;;;;;;;;;;;5081197;28;19908;-84
2023/11/27 03:46:39;;;;;;;;;;;;;;;;;;5087401;28;19984;-84
2023/11/27 03:49:05;;;;;;;;;;;;;;;;;;5088130;28;19984;-84
2023/11/27 03:51:31;;;;;;;;;;;;;;;;;;5030787;28;1109916;-84
2023/11/27 03:53:57;;;;;;;;;;;;;;;;;;5073208;28;20072;-84
2023/11/27 03:56:23;;;;;;;;;;;;;;;;;;5082980;28;20347;-85
2023/11/27 03:58:49;;;;;;;;;;;;;;;;;;5085863;28;19908;-84
2023/11/27 04:01:15;;;;;;;;;;;;;;;;;;5079948;28;20311;-84
2023/11/27 04:03:41;;;;;;;;;;;;;;;;;;5086087;28;20003;-80
2023/11/27 04:06:07;;;;;;;;;;;;;;;;;;5079573;28;20002;-81
2023/11/27 04:08:33;;;;;;;;;;;;;;;;;;5067067;28;19954;-81
2023/11/27 04:10:59;;;;;;;;;;;;;;;;;;5085192;28;20344;-82
2023/11/27 04:13:25;;;;;;;;;;;;;;;;;;5089441;28;20310;-83
2023/11/27 04:15:51;;;;;;;;;;;;;;;;;;5092215;28;20079;-82
2023/11/27 04:18:17;;;;;;;;;;;;;;;;;;5081497;28;20053;-81
2023/11/27 04:20:44;;;;;;;;;;;;;;;;;;5086948;28;20031;-82
2023/11/27 04:23:10;;;;;;;;;;;;;;;;;;5073437;28;20308;-82
2023/11/27 04:25:36;;;;;;;;;;;;;;;;;;5086791;28;19971;-82
2023/11/27 04:28:02;;;;;;;;;;;;;;;;;;5087687;28;19955;-82
2023/11/27 04:30:28;;;;;;;;;;;;;;;;;;5088572;28;19955;-82
2023/11/27 04:32:54;;;;;;;;;;;;;;;;;;5088342;28;19951;-82
2023/11/27 04:35:20;;;;;;;;;;;;;;;;;;5082143;28;20390;-82
2023/11/27 04:37:46;;;;;;;;;;;;;;;;;;5086288;28;19912;-82
2023/11/27 04:40:14;;;;;;;;;;;;;;;;;;5087819;28;19973;-82
2023/11/27 04:42:40;;;;;;;;;;;;;;;;;;5086000;28;19918;-82
2023/11/27 04:45:06;;;;;;;;;;;;;;;;;;5088763;28;19912;-82
2023/11/27 04:47:32;;;;;;;;;;;;;;;;;;5088216;28;19915;-81
2023/11/27 04:49:58;;;;;;;;;;;;;;;;;;5090585;28;19908;-81
2023/11/27 04:52:24;;;;;;;;;;;;;;;;;;5087382;28;20022;-82
2023/11/27 04:54:50;;;;;;;;;;;;;;;;;;5088023;28;20700;-81
2023/11/27 04:57:18;;;;;;;;;;;;;;;;;;5073250;28;19987;-82
2023/11/27 04:59:44;;;;;;;;;;;;;;;;;;5070678;28;19919;-83
2023/11/27 05:02:11;;;;;;;;;;;;;;;;;;5071454;28;19919;-82
2023/11/27 05:04:36;;;;;;;;;;;;;;;;;;5087569;28;19975;-82
2023/11/27 05:07:03;;;;;;;;;;;;;;;;;;5070228;28;19955;-82
2023/11/27 05:09:31;;;;;;;;;;;;;;;;;;5088334;28;20279;-81
2023/11/27 05:11:57;;;;;;;;;;;;;;;;;;5087448;28;19915;-81
2023/11/27 05:14:23;;;;;;;;;;;;;;;;;;5087883;28;19908;-82
2023/11/27 05:16:49;;;;;;;;;;;;;;;;;;5088213;28;19991;-82
2023/11/27 05:19:15;;;;;;;;;;;;;;;;;;5087822;28;20004;-83
2023/11/27 05:21:41;;;;;;;;;;;;;;;;;;5087353;28;19951;-82
2023/11/27 05:24:07;;;;;;;;;;;;;;;;;;5074738;28;19924;-86
2023/11/27 05:26:33;;;;;;;;;;;;;;;;;;5088434;28;19941;-87
2023/11/27 05:28:59;;;;;;;;;;;;;;;;;;5088925;28;19908;-86
2023/11/27 05:31:25;;;;;;;;;;;;;;;;;;5088726;28;20316;-88
2023/11/27 05:33:51;;;;;;;;;;;;;;;;;;5081727;28;20461;-86
2023/11/27 05:36:17;;;;;;;;;;;;;;;;;;5091814;28;19955;-87
2023/11/27 05:38:43;;;;;;;;;;;;;;;;;;5093158;28;19961;-86
2023/11/27 05:41:12;;;;;;;;;;;;;;;;;;5090717;28;20026;-87
2023/11/27 05:43:38;;;;;;;;;;;;;;;;;;5092065;28;19930;-86
2023/11/27 05:46:04;;;;;;;;;;;;;;;;;;5074119;28;20411;-85
2023/11/27 05:48:30;;;;;;;;;;;;;;;;;;5091113;28;19908;-85
2023/11/27 05:50:56;;;;;;;;;;;;;;;;;;5086443;28;20342;-86
2023/11/27 05:53:21;;;;;;;;;;;;;;;;;;5091487;28;19923;-88
2023/11/27 05:55:47;;;;;;;;;;;;;;;;;;5090692;28;20310;-90
2023/11/27 05:58:14;;;;;;;;;;;;;;;;;;5067425;28;20359;-88
2023/11/27 06:00:40;;;;;;;;;;;;;;;;;;5091199;28;20597;-90
2023/11/27 06:03:07;;;;;;;;;;;;;;;;;;5087466;28;19936;-88
2023/11/27 06:05:34;;;;;;;;;;;;;;;;;;5091099;28;19915;-90
2023/11/27 06:08:00;;;;;;;;;;;;;;;;;;5090374;28;19994;-87
2023/11/27 06:10:26;;;;;;;;;;;;;;;;;;5089672;28;19995;-88
2023/11/27 06:12:52;;;;;;;;;;;;;;;;;;5090887;28;19923;-90
2023/11/27 06:15:18;;;;;;;;;;;;;;;;;;5088286;28;19952;-91
2023/11/27 06:17:44;;;;;;;;;;;;;;;;;;5089283;28;19954;-89
2023/11/27 06:20:12;;;;;;;;;;;;;;;;;;5090377;28;19943;-88
2023/11/27 06:22:38;;;;;;;;;;;;;;;;;;5087883;28;19908;-88
2023/11/27 06:25:04;;;;;;;;;;;;;;;;;;5090999;28;19919;-89
2023/11/27 06:27:30;;;;;;;;;;;;;;;;;;5072212;28;19954;-89
2023/11/27 06:29:56;;;;;;;;;;;;;;;;;;5090456;28;19927;-88
2023/11/27 06:32:22;;;;;;;;;;;;;;;;;;5089153;28;19916;-88
2023/11/27 06:34:49;;;;;;;;;;;;;;;;;;5091794;28;19930;-82
2023/11/27 06:37:15;;;;;;;;;;;;;;;;;;5091027;28;19984;-89
2023/11/27 06:39:41;;;;;;;;;;;;;;;;;;5072703;28;19955;-86
2023/11/27 06:42:07;;;;;;;;;;;;;;;;;;5089010;28;19974;-89
2023/11/27 06:44:33;;;;;;;;;;;;;;;;;;5088953;28;19958;-89
2023/11/27 06:46:59;;;;;;;;;;;;;;;;;;5088873;28;19967;-88
2023/11/27 06:49:26;;;;;;;;;;;;;;;;;;5073360;28;19919;-89
2023/11/27 06:51:52;;;;;;;;;;;;;;;;;;5090295;28;19928;-87
2023/11/27 06:54:18;;;;;;;;;;;;;;;;;;5091213;28;19957;-89
2023/11/27 06:56:44;;;;;;;;;;;;;;;;;;5090243;28;20676;-89
2023/11/27 06:59:10;;;;;;;;;;;;;;;;;;5088983;28;19939;-88
2023/11/27 07:01:35;;;;;;;;;;;;;;;;;;5085796;28;19916;-87
2023/11/27 07:04:02;;;;;;;;;;;;;;;;;;5090387;28;20003;-87
2023/11/27 07:06:27;;;;;;;;;;;;;;;;;;5090406;28;19908;-88
2023/11/27 07:08:53;;;;;;;;;;;;;;;;;;5090752;28;20003;-88
2023/11/27 07:11:24;;;;;;;;;;;;;;;;;;5084525;28;20014;-88
2023/11/27 07:13:50;;;;;;;;;;;;;;;;;;5096109;28;20006;-88
2023/11/27 07:16:17;;;;;;;;;;;;;;;;;;5071924;28;19922;-88
2023/11/27 07:18:46;;;;;;;;;;;;;;;;;;5091009;28;20001;-87
2023/11/27 07:21:12;;;;;;;;;;;;;;;;;;5089686;28;20326;-88
2023/11/27 07:23:41;;;;;;;;;;;;;;;;;;5090233;28;19965;-88
2023/11/27 07:26:07;;;;;;;;;;;;;;;;;;5090081;28;19916;-88
2023/11/27 07:28:33;;;;;;;;;;;;;;;;;;5091290;28;19915;-87
2023/11/27 07:30:59;;;;;;;;;;;;;;;;;;5091098;28;19923;-87
2023/11/27 07:33:25;;;;;;;;;;;;;;;;;;5091186;28;19908;-88
2023/11/27 07:35:51;;;;;;;;;;;;;;;;;;5075900;28;20007;-87
2023/11/27 07:38:17;;;;;;;;;;;;;;;;;;5097661;28;19904;-85
2023/11/27 07:40:42;;;;;;;;;;;;;;;;;;5089471;28;20627;-86
2023/11/27 07:43:10;;;;;;;;;;;;;;;;;;5088360;28;20363;-85
2023/11/27 07:45:36;;;;;;;;;;;;;;;;;;5084823;28;20567;-84
2023/11/27 07:48:02;;;;;;;;;;;;;;;;;;5084365;28;19916;-88
2023/11/27 07:50:29;;;;;;;;;;;;;;;;;;5068863;28;20007;-90
2023/11/27 07:52:55;;;;;;;;;;;;;;;;;;5085016;28;20352;-90
2023/11/27 07:55:21;;;;;;;;;;;;;;;;;;5054562;28;19924;-89
2023/11/27 07:57:47;;;;;;;;;;;;;;;;;;5085090;28;20276;-89
2023/11/27 08:00:14;;;;;;;;;;;;;;;;;;5077191;28;19908;-86
2023/11/27 08:02:42;;;;;;;;;;;;;;;;;;5065714;28;19997;-87
2023/11/27 08:05:08;;;;;;;;;;;;;;;;;;5082915;28;19983;-86
2023/11/27 08:07:37;;;;;;;;;;;;;;;;;;5076070;28;19923;-86
2023/11/27 08:10:03;;;;;;;;;;;;;;;;;;5081170;28;20367;-85
2023/11/27 08:12:29;;;;;;;;;;;;;;;;;;5076299;28;19916;-86
2023/11/27 08:14:55;;;;;;;;;;;;;;;;;;5078525;28;19966;-86
2023/11/27 08:17:21;;;;;;;;;;;;;;;;;;5064360;28;19962;-85
2023/11/27 08:19:49;;;;;;;;;;;;;;;;;;5066433;28;19979;-86
2023/11/27 08:22:15;;;;;;;;;;;;;;;;;;5085484;28;19908;-86
2023/11/27 08:24:42;;;;;;;;;;;;;;;;;;5088691;28;20406;-86
2023/11/27 08:27:09;;;;;;;;;;;;;;;;;;5084341;28;20020;-85
2023/11/27 08:29:35;;;;;;;;;;;;;;;;;;5081583;28;19923;-86
2023/11/27 08:32:01;;;;;;;;;;;;;;;;;;5088148;28;19934;-87
2023/11/27 08:34:28;;;;;;;;;;;;;;;;;;5088346;28;19999;-87
2023/11/27 08:36:54;;;;;;;;;;;;;;;;;;5086748;28;19916;-86
2023/11/27 08:39:20;;;;;;;;;;;;;;;;;;5087816;28;19962;-87
2023/11/27 08:41:47;;;;;;;;;;;;;;;;;;5085738;28;19955;-86
2023/11/27 08:44:12;;;;;;;;;;;;;;;;;;5088768;28;19908;-86
2023/11/27 08:46:38;;;;;;;;;;;;;;;;;;5088875;28;20277;-88
2023/11/27 08:49:04;;;;;;;;;;;;;;;;;;5089166;28;20096;-85
2023/11/27 08:51:30;;;;;;;;;;;;;;;;;;5087889;28;20337;-85
2023/11/27 08:53:57;;;;;;;;;;;;;;;;;;5088898;28;19912;-81
2023/11/27 08:56:23;;;;;;;;;;;;;;;;;;5085864;28;19970;-81
2023/11/27 08:58:49;;;;;;;;;;;;;;;;;;5088170;28;20333;-81
2023/11/27 09:01:16;;;;;;;;;;;;;;;;;;5085276;28;19912;-83
2023/11/27 09:03:42;;;;;;;;;;;;;;;;;;5086535;28;20326;-81
2023/11/27 09:06:09;;;;;;;;;;;;;;;;;;5082163;28;20003;-82
2023/11/27 09:08:35;;;;;;;;;;;;;;;;;;5091542;28;19918;-81
2023/11/27 09:11:01;;;;;;;;;;;;;;;;;;5092083;28;19911;-83
2023/11/27 09:13:29;;;;;;;;;;;;;;;;;;5092439;28;19951;-81
2023/11/27 09:15:55;;;;;;;;;;;;;;;;;;5091428;28;19912;-81
2023/11/27 09:18:20;;;;;;;;;;;;;;;;;;5092126;28;20283;-81
2023/11/27 09:20:46;;;;;;;;;;;;;;;;;;5087001;28;20798;-82
2023/11/27 09:23:12;;;;;;;;;;;;;;;;;;5091191;28;20027;-82
2023/11/27 09:25:38;;;;;;;;;;;;;;;;;;5091470;28;19951;-81
2023/11/27 09:28:04;;;;;;;;;;;;;;;;;;5092190;28;20255;-81
2023/11/27 09:30:30;;;;;;;;;;;;;;;;;;5091341;28;19912;-81
2023/11/27 09:32:56;;;;;;;;;;;;;;;;;;5091734;28;20542;-82
2023/11/27 09:35:23;;;;;;;;;;;;;;;;;;5089299;28;19963;-83
2023/11/27 09:37:49;;;;;;;;;;;;;;;;;;5091331;28;20343;-82
2023/11/27 09:40:16;;;;;;;;;;;;;;;;;;5090363;28;20057;-82
2023/11/27 09:42:41;;;;;;;;;;;;;;;;;;5091702;28;19916;-81
2023/11/27 09:45:08;;;;;;;;;;;;;;;;;;5091175;28;19960;-83
2023/11/27 09:47:34;;;;;;;;;;;;;;;;;;5091336;28;20287;-83
2023/11/27 09:50:00;;;;;;;;;;;;;;;;;;5072619;28;19951;-81
2023/11/27 09:52:26;;;;;;;;;;;;;;;;;;5072158;28;19915;-82
2023/11/27 09:54:52;;;;;;;;;;;;;;;;;;5091341;28;19912;-80
2023/11/27 09:57:18;;;;;;;;;;;;;;;;;;5090813;28;20284;-81
2023/11/27 09:59:44;;;;;;;;;;;;;;;;;;5072730;28;19947;-81
2023/11/27 10:02:10;;;;;;;;;;;;;;;;;;5091388;28;19974;-80
2023/11/27 10:04:36;;;;;;;;;;;;;;;;;;5091093;28;19912;-85
2023/11/27 10:07:02;;;;;;;;;;;;;;;;;;5090527;28;19954;-85
2023/11/27 10:09:29;;;;;;;;;;;;;;;;;;5091611;28;20007;-87
2023/11/27 10:11:56;;;;;;;;;;;;;;;;;;5090857;28;19912;-85
2023/11/27 10:14:22;;;;;;;;;;;;;;;;;;5091276;28;19963;-85
2023/11/27 10:16:49;;;;;;;;;;;;;;;;;;5089895;28;20059;-84
2023/11/27 10:19:19;;;;;;;;;;;;;;;;;;5090785;28;19929;-85
2023/11/27 10:21:46;;;;;;;;;;;;;;;;;;5081714;28;19931;-85
2023/11/27 10:24:13;;;;;;;;;;;;;;;;;;5090793;28;19969;-85
2023/11/27 10:26:43;;;;;;;;;;;;;;;;;;5087721;28;19943;-85
2023/11/27 10:29:09;;;;;;;;;;;;;;;;;;5091286;28;20237;-85
2023/11/27 10:31:40;;;;;;;;;;;;;;;;;;5090344;28;19943;-84
2023/11/27 10:34:06;;;;;;;;;;;;;;;;;;5089171;28;20413;-84
2023/11/27 10:36:32;;;;;;;;;;;;;;;;;;5089453;28;19965;-84
2023/11/27 10:38:58;;;;;;;;;;;;;;;;;;5090419;28;19943;-85
2023/11/27 10:41:24;;;;;;;;;;;;;;;;;;5090253;28;19943;-85
2023/11/27 10:43:50;;;;;;;;;;;;;;;;;;5090286;28;20004;-84
2023/11/27 10:46:16;;;;;;;;;;;;;;;;;;5090055;28;19915;-84
2023/11/27 10:48:42;;;;;;;;;;;;;;;;;;5090349;28;19955;-85
2023/11/27 10:51:10;;;;;;;;;;;;;;;;;;5066041;28;19912;-84
2023/11/27 10:53:36;;;;;;;;;;;;;;;;;;5089721;28;19924;-84
2023/11/27 10:56:03;;;;;;;;;;;;;;;;;;5082375;28;20385;-85
2023/11/27 10:58:29;;;;;;;;;;;;;;;;;;5090082;28;19912;-85
2023/11/27 11:00:58;;;;;;;;;;;;;;;;;;5083677;28;20339;-85
2023/11/27 11:03:24;;;;;;;;;;;;;;;;;;5089820;28;19936;-85
2023/11/27 11:05:50;;;;;;;;;;;;;;;;;;5089127;28;20016;-85
2023/11/27 11:08:16;;;;;;;;;;;;;;;;;;5089721;28;19919;-86
2023/11/27 11:10:42;;;;;;;;;;;;;;;;;;5089378;28;19916;-85
2023/11/27 11:13:11;;;;;;;;;;;;;;;;;;5089687;28;20383;-85
2023/11/27 11:15:39;;;;;;;;;;;;;;;;;;5070770;28;19920;-81
2023/11/27 11:18:10;;;;;;;;;;;;;;;;;;5089347;28;19995;-81
2023/11/27 11:20:39;;;;;;;;;;;;;;;;;;5084684;28;19920;-82
2023/11/27 11:23:06;;;;;;;;;;;;;;;;;;5088607;28;20017;-81
2023/11/27 11:25:32;;;;;;;;;;;;;;;;;;5088587;28;20405;-82
2023/11/27 11:27:58;;;;;;;;;;;;;;;;;;5089296;28;19908;-81
2023/11/27 11:30:25;;;;;;;;;;;;;;;;;;5088137;28;19999;-81
2023/11/27 11:32:52;;;;;;;;;;;;;;;;;;5070768;28;20003;-83
2023/11/27 11:35:18;;;;;;;;;;;;;;;;;;5088678;28;20422;-81
2023/11/27 11:37:44;;;;;;;;;;;;;;;;;;5089406;28;20040;-81
2023/11/27 11:40:09;;;;;;;;;;;;;;;;;;5088709;28;19951;-81
2023/11/27 11:42:36;;;;;;;;;;;;;;;;;;5069391;28;19959;-82
2023/11/27 11:45:02;;;;;;;;;;;;;;;;;;5069167;28;19912;-82
2023/11/27 11:47:28;;;;;;;;;;;;;;;;;;5069356;28;19912;-81
2023/11/27 11:49:54;;;;;;;;;;;;;;;;;;5086004;28;19947;-82
2023/11/27 11:52:20;;;;;;;;;;;;;;;;;;5088606;28;20015;-81
2023/11/27 11:54:47;;;;;;;;;;;;;;;;;;5088690;28;20018;-81
2023/11/27 11:57:13;;;;;;;;;;;;;;;;;;5088268;28;19908;-81
2023/11/27 11:59:39;;;;;;;;;;;;;;;;;;5086685;28;19916;-82
2023/11/27 12:02:10;;;;;;;;;;;;;;;;;;5088714;28;19951;-82
2023/11/27 12:04:36;;;;;;;;;;;;;;;;;;5089174;28;19915;-82
2023/11/27 12:07:02;;;;;;;;;;;;;;;;;;5082811;28;20015;-81
2023/11/27 12:09:28;;;;;;;;;;;;;;;;;;5071197;28;20045;-80
2023/11/27 12:11:58;;;;;;;;;;;;;;;;;;5084227;28;19915;-79
2023/11/27 12:14:26;;;;;;;;;;;;;;;;;;5089616;28;20509;-82
2023/11/27 12:16:53;;;;;;;;;;;;;;;;;;5087729;28;20344;-81
2023/11/27 12:19:21;;;;;;;;;;;;;;;;;;5089091;28;19932;-82
2023/11/27 12:21:47;;;;;;;;;;;;;;;;;;5086336;28;20029;-80
2023/11/27 12:24:14;;;;;;;;;;;;;;;;;;5086615;28;19911;-81
2023/11/27 12:26:39;;;;;;;;;;;;;;;;;;5088038;28;20406;-81
2023/11/27 12:29:05;;;;;;;;;;;;;;;;;;5089335;28;20086;-81
2023/11/27 12:31:31;;;;;;;;;;;;;;;;;;5088731;28;19970;-82
2023/11/27 12:33:57;;;;;;;;;;;;;;;;;;5088161;28;19962;-81
2023/11/27 12:36:23;;;;;;;;;;;;;;;;;;5086922;28;20411;-82
2023/11/27 12:38:52;;;;;;;;;;;;;;;;;;5088230;28;19916;-82
2023/11/27 12:41:18;;;;;;;;;;;;;;;;;;5087385;28;19919;-83
2023/11/27 12:43:44;;;;;;;;;;;;;;;;;;5092905;28;20363;-81
2023/11/27 12:46:13;;;;;;;;;;;;;;;;;;5091571;28;19908;-80
2023/11/27 12:48:39;;;;;;;;;;;;;;;;;;5091921;28;19966;-82
2023/11/27 12:51:12;;;;;;;;;;;;;;;;;;5090165;28;19955;-81
2023/11/27 12:53:37;;;;;;;;;;;;;;;;;;5092861;28;20352;-81
2023/11/27 12:56:03;;;;;;;;;;;;;;;;;;5084545;28;19967;-83
2023/11/27 12:58:29;;;;;;;;;;;;;;;;;;5072525;28;20334;-81
2023/11/27 13:00:57;;;;;;;;;;;;;;;;;;5072631;28;20289;-81
2023/11/27 13:03:25;;;;;;;;;;;;;;;;;;5073064;28;19930;-82
2023/11/27 13:05:54;;;;;;;;;;;;;;;;;;5085545;28;19908;-80
2023/11/27 13:08:31;;;;;;;;;;;;;;;;;;5072413;28;20317;-82
2023/11/27 13:10:58;;;;;;;;;;;;;;;;;;5059952;28;19912;-82
2023/11/27 13:13:25;;;;;;;;;;;;;;;;;;5091777;28;20446;-83
2023/11/27 13:15:58;;;;;;;;;;;;;;;;;;5085585;28;20386;-79
2023/11/27 13:18:28;;;;;;;;;;;;;;;;;;5083031;28;20375;-81
2023/11/27 13:20:54;;;;;;;;;;;;;;;;;;5069401;28;19912;-80
2023/11/27 13:23:20;;;;;;;;;;;;;;;;;;5091428;28;19995;-81
2023/11/27 13:25:46;;;;;;;;;;;;;;;;;;5073498;28;19908;-80
2023/11/27 13:28:19;;;;;;;;;;;;;;;;;;5091606;28;19974;-82
2023/11/27 13:30:45;;;;;;;;;;;;;;;;;;5091980;28;19912;-82
2023/11/27 13:33:11;;;;;;;;;;;;;;;;;;5092287;28;19911;-80
2023/11/27 13:35:37;;;;;;;;;;;;;;;;;;5091229;28;20311;-81
2023/11/27 13:38:04;;;;;;;;;;;;;;;;;;5092710;28;19951;-80
2023/11/27 13:40:35;;;;;;;;;;;;;;;;;;5091777;28;19912;-82
2023/11/27 13:43:01;;;;;;;;;;;;;;;;;;5091529;28;20087;-81
2023/11/27 13:45:33;;;;;;;;;;;;;;;;;;5088426;28;20338;-82
2023/11/27 13:47:59;;;;;;;;;;;;;;;;;;5071492;28;20355;-81
2023/11/27 13:50:35;;;;;;;;;;;;;;;;;;5073236;28;19951;-83
2023/11/27 13:53:01;;;;;;;;;;;;;;;;;;5072046;28;19965;-81
2023/11/27 13:55:31;;;;;;;;;;;;;;;;;;5091072;28;19967;-81
2023/11/27 13:57:57;;;;;;;;;;;;;;;;;;5091653;28;20382;-82
2023/11/27 14:00:23;;;;;;;;;;;;;;;;;;5088681;28;20003;-82
2023/11/27 14:02:49;;;;;;;;;;;;;;;;;;5071473;28;19947;-81
2023/11/27 14:05:20;;;;;;;;;;;;;;;;;;5086811;28;19939;-80
2023/11/27 14:07:47;;;;;;;;;;;;;;;;;;5091434;28;19914;-81
2023/11/27 14:10:32;;;;;;;;;;;;;;;;;;5090170;28;20371;-82
2023/11/27 14:13:08;;;;;;;;;;;;;;;;;;5070638;28;20023;-82
2023/11/27 14:15:37;;;;;;;;;;;;;;;;;;5056554;28;19920;-81
2023/11/27 14:28:32;;;;;;;;;;;;;;;;;;5071302;28;19958;-82
2023/11/27 14:30:58;;;;;;;;;;;;;;;;;;5077886;28;19908;-82
2023/11/27 14:33:24;;;;;;;;;;;;;;;;;;5091070;28;20313;-81
2023/11/27 14:35:54;;;;;;;;;;;;;;;;;;5083706;28;20374;-81
2023/11/27 14:38:22;;;;;;;;;;;;;;;;;;5052548;28;20272;-81
2023/11/27 14:40:48;;;;;;;;;;;;;;;;;;5076786;28;20071;-80
2023/11/27 14:43:14;;;;;;;;;;;;;;;;;;5090274;28;20415;-81
2023/11/27 14:45:48;;;;;;;;;;;;;;;;;;5091089;28;19908;-86
2023/11/27 14:48:14;;;;;;;;;;;;;;;;;;5091615;28;19912;-88
2023/11/27 14:50:40;;;;;;;;;;;;;;;;;;5090315;28;20710;-87
2023/11/27 14:53:07;;;;;;;;;;;;;;;;;;5091011;28;20049;-88
2023/11/27 14:55:33;;;;;;;;;;;;;;;;;;5090696;28;19916;-87
2023/11/27 14:57:59;;;;;;;;;;;;;;;;;;5090937;28;19953;-88
2023/11/27 15:00:26;;;;;;;;;;;;;;;;;;5089923;28;20111;-87
2023/11/27 15:02:54;;;;;;;;;;;;;;;;;;5089359;28;20331;-87
2023/11/27 15:05:20;;;;;;;;;;;;;;;;;;5087762;28;19949;-87
2023/11/27 15:07:45;;;;;;;;;;;;;;;;;;5090403;28;20041;-87
2023/11/27 15:10:11;;;;;;;;;;;;;;;;;;5089600;28;19911;-88
2023/11/27 15:12:42;;;;;;;;;;;;;;;;;;5073835;28;19982;-88
2023/11/27 15:15:09;;;;;;;;;;;;;;;;;;5090793;28;19985;-88
2023/11/27 15:17:36;;;;;;;;;;;;;;;;;;5091292;28;19989;-86
2023/11/27 15:20:03;;;;;;;;;;;;;;;;;;5090345;28;20295;-87
2023/11/27 15:22:29;;;;;;;;;;;;;;;;;;5082832;28;19990;-88
2023/11/27 15:24:56;;;;;;;;;;;;;;;;;;5091217;28;20023;-86
2023/11/27 15:27:25;;;;;;;;;;;;;;;;;;5089991;28;20288;-86
2023/11/27 15:29:51;;;;;;;;;;;;;;;;;;5091273;28;20389;-87
2023/11/27 15:32:20;;;;;;;;;;;;;;;;;;5077188;28;19955;-88
2023/11/27 15:34:46;;;;;;;;;;;;;;;;;;5087222;28;19908;-87
2023/11/27 15:37:14;;;;;;;;;;;;;;;;;;5064050;28;19923;-87
2023/11/27 15:39:48;;;;;;;;;;;;;;;;;;5084714;28;19912;-85
2023/11/27 15:42:14;;;;;;;;;;;;;;;;;;5067281;28;20280;-89
2023/11/27 15:44:41;;;;;;;;;;;;;;;;;;5090886;28;19908;-86
2023/11/27 15:47:07;;;;;;;;;;;;;;;;;;5090685;28;19908;-88
2023/11/27 15:49:33;;;;;;;;;;;;;;;;;;5090311;28;19908;-84
2023/11/27 15:52:00;;;;;;;;;;;;;;;;;;5079491;28;20057;-87
2023/11/27 15:54:26;;;;;;;;;;;;;;;;;;5088062;28;20354;-87
2023/11/27 15:56:52;;;;;;;;;;;;;;;;;;5083100;28;19955;-86
2023/11/27 15:59:18;;;;;;;;;;;;;;;;;;5092090;28;19942;-86
2023/11/27 16:01:44;;;;;;;;;;;;;;;;;;5087182;28;19911;-85
2023/11/27 16:04:12;;;;;;;;;;;;;;;;;;5085797;28;19974;-85
2023/11/27 16:06:38;;;;;;;;;;;;;;;;;;5069196;28;19971;-87
2023/11/27 16:09:06;;;;;;;;;;;;;;;;;;5088079;28;20395;-89
2023/11/27 16:11:32;;;;;;;;;;;;;;;;;;5087204;28;19916;-88
2023/11/27 16:14:00;;;;;;;;;;;;;;;;;;5080104;28;19920;-87
2023/11/27 16:16:27;;;;;;;;;;;;;;;;;;5082150;28;20001;-87
2023/11/27 16:18:53;;;;;;;;;;;;;;;;;;5088791;28;19916;-88
2023/11/27 16:21:19;;;;;;;;;;;;;;;;;;5075799;28;20022;-87
2023/11/27 16:23:46;;;;;;;;;;;;;;;;;;5082227;28;19919;-90
2023/11/27 16:26:12;;;;;;;;;;;;;;;;;;5087797;28;20166;-85
2023/11/27 16:28:38;;;;;;;;;;;;;;;;;;5087815;28;19972;-85
2023/11/27 16:31:04;;;;;;;;;;;;;;;;;;5088539;28;19935;-86
2023/11/27 16:33:33;;;;;;;;;;;;;;;;;;5088716;28;20011;-85
2023/11/27 16:35:59;;;;;;;;;;;;;;;;;;5080734;28;20326;-84
2023/11/27 16:38:25;;;;;;;;;;;;;;;;;;5080710;28;19938;-86
2023/11/27 16:40:51;;;;;;;;;;;;;;;;;;5084427;28;20287;-82
2023/11/27 16:43:17;;;;;;;;;;;;;;;;;;5080563;28;20371;-85
2023/11/27 16:45:43;;;;;;;;;;;;;;;;;;5082296;28;20371;-84
2023/11/27 16:48:10;;;;;;;;;;;;;;;;;;5088886;28;19919;-86
2023/11/27 16:50:36;;;;;;;;;;;;;;;;;;5066818;28;19922;-85